Terminal Aerodrome Forecast
Issued by NWS Buffalo, NY

Home | Current Version | Previous Version | Text Only | Print | Product List | Glossary On
Versions: 1 2 3 4 5 6 7 8 9 10 11 12 13 14 15 16 17 18 19 20 21 22 23 24 25 26 27 28 29
399
FTUS41 KBUF 062323
TAFROC
TAF
KROC 062323Z 0700/0724 25009KT P6SM SCT200
     FM071200 21004KT P6SM SCT200
     FM071900 17007KT P6SM SCT200
     FM072300 13005KT P6SM BKN130=

USA.gov is the U.S. government's official web portal to all federal, state and local government web resources and services.